sensor_id;sensor_type;location;lat;lon;timestamp;temperature;humidity
36280;DHT22;22317;47.936;12.742;2022-09-09T00:04:38;11.70;59.90
36280;DHT22;22317;47.936;12.742;2022-09-09T00:12:34;11.70;59.90
36280;DHT22;22317;47.936;12.742;2022-09-09T00:15:07;11.80;59.80
36280;DHT22;22317;47.936;12.742;2022-09-09T00:17:53;11.70;59.80
36280;DHT22;22317;47.936;12.742;2022-09-09T00:20:45;11.70;59.30
36280;DHT22;22317;47.936;12.742;2022-09-09T00:23:29;11.70;59.90
36280;DHT22;22317;47.936;12.742;2022-09-09T00:28:24;11.80;59.90
36280;DHT22;22317;47.936;12.742;2022-09-09T00:30:51;11.80;59.50
36280;DHT22;22317;47.936;12.742;2022-09-09T00:33:20;11.80;59.90
36280;DHT22;22317;47.936;12.742;2022-09-09T00:36:00;11.80;59.90
36280;DHT22;22317;47.936;12.742;2022-09-09T00:38:36;11.80;60.00
36280;DHT22;22317;47.936;12.742;2022-09-09T00:43:56;11.90;60.10
36280;DHT22;22317;47.936;12.742;2022-09-09T00:51:53;11.90;60.10
36280;DHT22;22317;47.936;12.742;2022-09-09T00:57:11;11.90;60.30
36280;DHT22;22317;47.936;12.742;2022-09-09T00:59:48;11.90;59.80
36280;DHT22;22317;47.936;12.742;2022-09-09T01:05:36;12.00;60.60
36280;DHT22;22317;47.936;12.742;2022-09-09T01:08:58;12.00;60.50
36280;DHT22;22317;47.936;12.742;2022-09-09T01:10:56;11.90;60.00
36280;DHT22;22317;47.936;12.742;2022-09-09T01:13:29;12.00;60.50
36280;DHT22;22317;47.936;12.742;2022-09-09T01:15:59;12.00;60.50
36280;DHT22;22317;47.936;12.742;2022-09-09T01:18:46;11.90;60.00
36280;DHT22;22317;47.936;12.742;2022-09-09T01:27:12;12.00;60.70
36280;DHT22;22317;47.936;12.742;2022-09-09T01:29:40;12.10;60.20
36280;DHT22;22317;47.936;12.742;2022-09-09T01:32:45;12.10;60.70
36280;DHT22;22317;47.936;12.742;2022-09-09T01:37:47;12.10;60.30
36280;DHT22;22317;47.936;12.742;2022-09-09T01:40:13;12.10;60.50
36280;DHT22;22317;47.936;12.742;2022-09-09T01:42:39;12.10;61.00
36280;DHT22;22317;47.936;12.742;2022-09-09T01:45:05;12.10;61.00
36280;DHT22;22317;47.936;12.742;2022-09-09T01:47:31;12.10;61.00
36280;DHT22;22317;47.936;12.742;2022-09-09T01:50:08;12.20;60.60
36280;DHT22;22317;47.936;12.742;2022-09-09T01:52:36;12.20;60.50
36280;DHT22;22317;47.936;12.742;2022-09-09T01:55:04;12.20;61.00
36280;DHT22;22317;47.936;12.742;2022-09-09T02:00:24;12.20;60.50
36280;DHT22;22317;47.936;12.742;2022-09-09T02:05:45;12.20;60.50
36280;DHT22;22317;47.936;12.742;2022-09-09T02:08:33;12.10;61.20
36280;DHT22;22317;47.936;12.742;2022-09-09T02:11:10;12.20;60.60
36280;DHT22;22317;47.936;12.742;2022-09-09T02:14:13;12.10;60.50
36280;DHT22;22317;47.936;12.742;2022-09-09T02:16:52;12.20;61.10
36280;DHT22;22317;47.936;12.742;2022-09-09T02:19:32;12.10;60.50
36280;DHT22;22317;47.936;12.742;2022-09-09T02:22:23;12.10;60.70
36280;DHT22;22317;47.936;12.742;2022-09-09T02:24:51;12.10;61.20
36280;DHT22;22317;47.936;12.742;2022-09-09T02:27:25;12.20;61.40
36280;DHT22;22317;47.936;12.742;2022-09-09T02:29:52;12.30;60.80
36280;DHT22;22317;47.936;12.742;2022-09-09T02:32:31;12.20;61.30
36280;DHT22;22317;47.936;12.742;2022-09-09T02:35:04;12.20;61.10
36280;DHT22;22317;47.936;12.742;2022-09-09T02:37:37;12.20;61.30
36280;DHT22;22317;47.936;12.742;2022-09-09T02:40:05;12.20;61.00
36280;DHT22;22317;47.936;12.742;2022-09-09T02:42:38;12.20;61.50
36280;DHT22;22317;47.936;12.742;2022-09-09T02:45:04;12.20;61.60
36280;DHT22;22317;47.936;12.742;2022-09-09T02:47:35;12.20;61.70
36280;DHT22;22317;47.936;12.742;2022-09-09T02:58:20;12.30;62.90
36280;DHT22;22317;47.936;12.742;2022-09-09T03:00:55;12.30;61.60
36280;DHT22;22317;47.936;12.742;2022-09-09T03:03:23;12.30;62.00
36280;DHT22;22317;47.936;12.742;2022-09-09T03:05:50;12.40;61.50
36280;DHT22;22317;47.936;12.742;2022-09-09T03:08:16;12.40;61.90
36280;DHT22;22317;47.936;12.742;2022-09-09T03:10:43;12.30;61.50
36280;DHT22;22317;47.936;12.742;2022-09-09T03:13:10;12.30;62.00
36280;DHT22;22317;47.936;12.742;2022-09-09T03:15:39;12.30;62.10
36280;DHT22;22317;47.936;12.742;2022-09-09T03:18:06;12.30;62.20
36280;DHT22;22317;47.936;12.742;2022-09-09T03:20:33;12.30;62.00
36280;DHT22;22317;47.936;12.742;2022-09-09T03:22:59;12.20;62.40
36280;DHT22;22317;47.936;12.742;2022-09-09T03:25:25;12.30;62.60
36280;DHT22;22317;47.936;12.742;2022-09-09T03:27:53;12.30;62.60
36280;DHT22;22317;47.936;12.742;2022-09-09T03:30:22;12.30;62.30
36280;DHT22;22317;47.936;12.742;2022-09-09T03:32:48;12.30;62.70
36280;DHT22;22317;47.936;12.742;2022-09-09T03:35:14;12.40;62.20
36280;DHT22;22317;47.936;12.742;2022-09-09T03:37:41;12.40;62.80
36280;DHT22;22317;47.936;12.742;2022-09-09T03:40:08;12.50;62.40
36280;DHT22;22317;47.936;12.742;2022-09-09T03:42:35;12.40;62.80
36280;DHT22;22317;47.936;12.742;2022-09-09T03:45:07;12.50;62.80
36280;DHT22;22317;47.936;12.742;2022-09-09T03:47:34;12.50;62.80
36280;DHT22;22317;47.936;12.742;2022-09-09T03:50:06;12.50;62.40
36280;DHT22;22317;47.936;12.742;2022-09-09T03:52:37;12.60;62.90
36280;DHT22;22317;47.936;12.742;2022-09-09T03:55:07;12.60;62.90
36280;DHT22;22317;47.936;12.742;2022-09-09T03:57:34;12.60;62.90
36280;DHT22;22317;47.936;12.742;2022-09-09T04:00:07;12.70;62.60
36280;DHT22;22317;47.936;12.742;2022-09-09T04:02:42;12.60;63.10
36280;DHT22;22317;47.936;12.742;2022-09-09T04:05:10;12.70;62.90
36280;DHT22;22317;47.936;12.742;2022-09-09T04:07:39;12.40;62.30
36280;DHT22;22317;47.936;12.742;2022-09-09T04:10:05;12.70;62.40
36280;DHT22;22317;47.936;12.742;2022-09-09T04:12:31;12.70;62.90
36280;DHT22;22317;47.936;12.742;2022-09-09T04:14:57;12.70;62.80
36280;DHT22;22317;47.936;12.742;2022-09-09T04:17:23;12.80;62.80
36280;DHT22;22317;47.936;12.742;2022-09-09T04:19:49;15.30;63.70
36280;DHT22;22317;47.936;12.742;2022-09-09T04:22:15;12.80;62.70
36280;DHT22;22317;47.936;12.742;2022-09-09T04:24:41;12.80;62.70
36280;DHT22;22317;47.936;12.742;2022-09-09T04:27:07;12.90;62.10
36280;DHT22;22317;47.936;12.742;2022-09-09T04:29:34;12.80;62.00
36280;DHT22;22317;47.936;12.742;2022-09-09T04:32:01;12.80;62.60
36280;DHT22;22317;47.936;12.742;2022-09-09T04:34:26;12.80;61.80
36280;DHT22;22317;47.936;12.742;2022-09-09T04:36:53;12.80;62.40
36280;DHT22;22317;47.936;12.742;2022-09-09T04:39:20;12.80;61.80
36280;DHT22;22317;47.936;12.742;2022-09-09T04:41:46;12.80;61.80
36280;DHT22;22317;47.936;12.742;2022-09-09T04:44:12;12.90;62.40
36280;DHT22;22317;47.936;12.742;2022-09-09T04:46:38;12.80;62.30
36280;DHT22;22317;47.936;12.742;2022-09-09T04:49:04;12.90;61.60
36280;DHT22;22317;47.936;12.742;2022-09-09T04:51:32;12.90;62.20
36280;DHT22;22317;47.936;12.742;2022-09-09T04:53:58;12.90;61.50
36280;DHT22;22317;47.936;12.742;2022-09-09T04:56:24;12.90;62.00
36280;DHT22;22317;47.936;12.742;2022-09-09T04:58:55;13.00;61.40
36280;DHT22;22317;47.936;12.742;2022-09-09T05:01:25;12.90;61.80
36280;DHT22;22317;47.936;12.742;2022-09-09T05:03:58;13.00;61.90
36280;DHT22;22317;47.936;12.742;2022-09-09T05:06:24;13.00;61.90
36280;DHT22;22317;47.936;12.742;2022-09-09T05:08:54;12.90;61.40
36280;DHT22;22317;47.936;12.742;2022-09-09T05:11:27;13.00;62.00
36280;DHT22;22317;47.936;12.742;2022-09-09T05:13:57;13.00;62.10
36280;DHT22;22317;47.936;12.742;2022-09-09T05:16:24;11.20;61.00
36280;DHT22;22317;47.936;12.742;2022-09-09T05:18:50;13.00;61.60
36280;DHT22;22317;47.936;12.742;2022-09-09T05:21:18;13.00;62.10
36280;DHT22;22317;47.936;12.742;2022-09-09T05:23:45;13.00;62.20
36280;DHT22;22317;47.936;12.742;2022-09-09T05:26:20;13.10;62.20
36280;DHT22;22317;47.936;12.742;2022-09-09T05:28:48;13.10;61.60
36280;DHT22;22317;47.936;12.742;2022-09-09T05:31:16;13.10;62.10
36280;DHT22;22317;47.936;12.742;2022-09-09T05:33:44;13.10;62.10
36280;DHT22;22317;47.936;12.742;2022-09-09T05:36:15;13.20;62.80
36280;DHT22;22317;47.936;12.742;2022-09-09T05:38:43;13.20;61.60
36280;DHT22;22317;47.936;12.742;2022-09-09T05:41:10;13.20;62.90
36280;DHT22;22317;47.936;12.742;2022-09-09T05:43:37;13.20;62.10
36280;DHT22;22317;47.936;12.742;2022-09-09T05:46:08;13.20;62.10
36280;DHT22;22317;47.936;12.742;2022-09-09T05:48:36;13.30;62.20
36280;DHT22;22317;47.936;12.742;2022-09-09T05:51:03;13.30;61.60
36280;DHT22;22317;47.936;12.742;2022-09-09T05:53:30;13.30;62.20
36280;DHT22;22317;47.936;12.742;2022-09-09T05:56:10;13.30;62.20
36280;DHT22;22317;47.936;12.742;2022-09-09T05:58:37;13.30;62.30
36280;DHT22;22317;47.936;12.742;2022-09-09T06:01:26;13.30;61.70
36280;DHT22;22317;47.936;12.742;2022-09-09T06:03:53;13.40;62.30
36280;DHT22;22317;47.936;12.742;2022-09-09T06:06:24;13.40;62.20
36280;DHT22;22317;47.936;12.742;2022-09-09T06:08:55;13.40;61.50
36280;DHT22;22317;47.936;12.742;2022-09-09T06:11:28;13.40;62.10
36280;DHT22;22317;47.936;12.742;2022-09-09T06:13:57;13.50;62.00
36280;DHT22;22317;47.936;12.742;2022-09-09T06:16:26;13.50;62.00
36280;DHT22;22317;47.936;12.742;2022-09-09T06:18:53;13.50;61.30
36280;DHT22;22317;47.936;12.742;2022-09-09T06:21:29;13.50;61.90
36280;DHT22;22317;47.936;12.742;2022-09-09T06:23:58;13.50;61.90
36280;DHT22;22317;47.936;12.742;2022-09-09T06:26:30;13.50;61.80
36280;DHT22;22317;47.936;12.742;2022-09-09T06:28:57;13.50;61.10
36280;DHT22;22317;47.936;12.742;2022-09-09T06:31:28;13.50;61.70
36280;DHT22;22317;47.936;12.742;2022-09-09T06:33:58;13.60;61.70
36280;DHT22;22317;47.936;12.742;2022-09-09T06:36:29;13.60;61.70
36280;DHT22;22317;47.936;12.742;2022-09-09T06:38:56;13.60;61.20
36280;DHT22;22317;47.936;12.742;2022-09-09T06:41:24;13.50;61.20
36280;DHT22;22317;47.936;12.742;2022-09-09T06:43:51;13.60;61.50
36280;DHT22;22317;47.936;12.742;2022-09-09T06:46:25;13.60;62.00
36280;DHT22;22317;47.936;12.742;2022-09-09T06:48:56;13.60;61.50
36280;DHT22;22317;47.936;12.742;2022-09-09T06:51:27;13.60;62.10
36280;DHT22;22317;47.936;12.742;2022-09-09T06:53:55;13.60;61.60
36280;DHT22;22317;47.936;12.742;2022-09-09T06:58:52;13.70;61.70
36280;DHT22;22317;47.936;12.742;2022-09-09T07:01:27;13.70;62.30
36280;DHT22;22317;47.936;12.742;2022-09-09T07:03:57;13.80;62.20
36280;DHT22;22317;47.936;12.742;2022-09-09T07:06:27;13.80;62.00
36280;DHT22;22317;47.936;12.742;2022-09-09T07:09:05;13.80;61.30
36280;DHT22;22317;47.936;12.742;2022-09-09T07:11:38;13.80;61.90
36280;DHT22;22317;47.936;12.742;2022-09-09T07:14:04;13.80;61.30
36280;DHT22;22317;47.936;12.742;2022-09-09T07:16:30;13.80;61.70
36280;DHT22;22317;47.936;12.742;2022-09-09T07:19:00;13.90;61.30
36280;DHT22;22317;47.936;12.742;2022-09-09T07:21:28;13.80;61.80
36280;DHT22;22317;47.936;12.742;2022-09-09T07:23:54;17.10;63.80
36280;DHT22;22317;47.936;12.742;2022-09-09T07:26:23;13.90;61.90
36280;DHT22;22317;47.936;12.742;2022-09-09T07:28:51;13.90;61.40
36280;DHT22;22317;47.936;12.742;2022-09-09T07:31:19;14.00;61.50
36280;DHT22;22317;47.936;12.742;2022-09-09T07:33:47;13.90;62.00
36280;DHT22;22317;47.936;12.742;2022-09-09T07:38:46;13.90;61.50
36280;DHT22;22317;47.936;12.742;2022-09-09T07:41:40;13.90;62.00
36280;DHT22;22317;47.936;12.742;2022-09-09T07:44:09;14.00;61.50
36280;DHT22;22317;47.936;12.742;2022-09-09T07:46:38;14.00;62.00
36280;DHT22;22317;47.936;12.742;2022-09-09T07:49:13;14.00;61.60
36280;DHT22;22317;47.936;12.742;2022-09-09T07:51:42;14.00;62.20
36280;DHT22;22317;47.936;12.742;2022-09-09T07:54:11;14.00;62.20
36280;DHT22;22317;47.936;12.742;2022-09-09T07:56:43;14.10;62.30
36280;DHT22;22317;47.936;12.742;2022-09-09T07:59:10;14.20;61.60
36280;DHT22;22317;47.936;12.742;2022-09-09T08:01:42;14.20;62.10
36280;DHT22;22317;47.936;12.742;2022-09-09T08:04:16;14.20;62.10
36280;DHT22;22317;47.936;12.742;2022-09-09T08:06:49;14.20;62.10
36280;DHT22;22317;47.936;12.742;2022-09-09T08:09:17;14.30;61.50
36280;DHT22;22317;47.936;12.742;2022-09-09T08:11:45;14.40;62.10
36280;DHT22;22317;47.936;12.742;2022-09-09T08:14:11;14.40;61.90
36280;DHT22;22317;47.936;12.742;2022-09-09T08:16:40;14.40;61.70
36280;DHT22;22317;47.936;12.742;2022-09-09T08:19:06;14.50;61.00
36280;DHT22;22317;47.936;12.742;2022-09-09T08:21:34;14.40;61.50
36280;DHT22;22317;47.936;12.742;2022-09-09T08:24:02;14.50;60.80
36280;DHT22;22317;47.936;12.742;2022-09-09T08:26:31;14.50;60.80
36280;DHT22;22317;47.936;12.742;2022-09-09T08:28:59;14.50;61.00
36280;DHT22;22317;47.936;12.742;2022-09-09T08:31:28;14.50;60.90
36280;DHT22;22317;47.936;12.742;2022-09-09T08:33:55;14.50;61.00
36280;DHT22;22317;47.936;12.742;2022-09-09T08:36:24;14.60;61.50
36280;DHT22;22317;47.936;12.742;2022-09-09T08:38:53;14.60;60.90
36280;DHT22;22317;47.936;12.742;2022-09-09T08:44:49;14.60;61.50
36280;DHT22;22317;47.936;12.742;2022-09-09T08:52:29;14.60;61.10
36280;DHT22;22317;47.936;12.742;2022-09-09T08:57:38;14.60;61.70
36280;DHT22;22317;47.936;12.742;2022-09-09T09:00:04;14.70;61.20
36280;DHT22;22317;47.936;12.742;2022-09-09T09:02:56;14.70;61.70
36280;DHT22;22317;47.936;12.742;2022-09-09T09:05:28;14.70;61.80
36280;DHT22;22317;47.936;12.742;2022-09-09T09:10:56;14.80;61.30
36280;DHT22;22317;47.936;12.742;2022-09-09T09:13:35;14.80;61.80
36280;DHT22;22317;47.936;12.742;2022-09-09T09:16:13;14.90;61.90
36280;DHT22;22317;47.936;12.742;2022-09-09T09:21:18;14.90;61.00
36280;DHT22;22317;47.936;12.742;2022-09-09T09:24:00;12.20;60.10
36280;DHT22;22317;47.936;12.742;2022-09-09T09:26:38;15.00;61.30
36280;DHT22;22317;47.936;12.742;2022-09-09T09:29:18;15.10;61.20
36280;DHT22;22317;47.936;12.742;2022-09-09T09:31:54;15.10;61.80
36280;DHT22;22317;47.936;12.742;2022-09-09T09:34:23;15.10;61.70
36280;DHT22;22317;47.936;12.742;2022-09-09T09:36:57;15.10;61.70
36280;DHT22;22317;47.936;12.742;2022-09-09T09:39:32;15.20;61.10
36280;DHT22;22317;47.936;12.742;2022-09-09T09:42:10;15.20;61.80
36280;DHT22;22317;47.936;12.742;2022-09-09T09:44:40;15.20;61.20
36280;DHT22;22317;47.936;12.742;2022-09-09T09:47:17;15.20;61.30
36280;DHT22;22317;47.936;12.742;2022-09-09T09:49:55;15.20;61.50
36280;DHT22;22317;47.936;12.742;2022-09-09T09:52:30;15.20;62.00
36280;DHT22;22317;47.936;12.742;2022-09-09T09:54:58;15.30;62.10
36280;DHT22;22317;47.936;12.742;2022-09-09T09:57:30;15.30;62.10
36280;DHT22;22317;47.936;12.742;2022-09-09T10:02:43;15.30;61.60
36280;DHT22;22317;47.936;12.742;2022-09-09T10:07:46;13.60;61.30
36280;DHT22;22317;47.936;12.742;2022-09-09T10:10:19;15.40;61.90
36280;DHT22;22317;47.936;12.742;2022-09-09T10:12:53;15.40;62.40
36280;DHT22;22317;47.936;12.742;2022-09-09T10:15:59;15.50;62.40
36280;DHT22;22317;47.936;12.742;2022-09-09T10:29:42;15.60;61.80
36280;DHT22;22317;47.936;12.742;2022-09-09T10:32:37;15.60;62.50
36280;DHT22;22317;47.936;12.742;2022-09-09T10:40:39;15.60;62.20
36280;DHT22;22317;47.936;12.742;2022-09-09T10:54:13;15.90;62.40
36280;DHT22;22317;47.936;12.742;2022-09-09T10:56:44;15.90;62.30
36280;DHT22;22317;47.936;12.742;2022-09-09T10:59:19;16.00;61.20
36280;DHT22;22317;47.936;12.742;2022-09-09T11:01:57;16.00;61.80
36280;DHT22;22317;47.936;12.742;2022-09-09T11:04:49;16.00;61.70
36280;DHT22;22317;47.936;12.742;2022-09-09T11:07:29;16.00;61.40
36280;DHT22;22317;47.936;12.742;2022-09-09T11:10:03;16.10;61.30
36280;DHT22;22317;47.936;12.742;2022-09-09T11:12:36;16.10;61.80
36280;DHT22;22317;47.936;12.742;2022-09-09T11:15:08;16.10;61.60
36280;DHT22;22317;47.936;12.742;2022-09-09T11:18:05;16.10;61.50
36280;DHT22;22317;47.936;12.742;2022-09-09T11:20:32;16.10;61.20
36280;DHT22;22317;47.936;12.742;2022-09-09T11:23:14;16.10;61.60
36280;DHT22;22317;47.936;12.742;2022-09-09T11:25:47;16.10;61.80
36280;DHT22;22317;47.936;12.742;2022-09-09T11:28:36;16.20;61.80
36280;DHT22;22317;47.936;12.742;2022-09-09T11:36:51;16.20;61.20
36280;DHT22;22317;47.936;12.742;2022-09-09T11:44:37;16.30;63.50
36280;DHT22;22317;47.936;12.742;2022-09-09T11:47:03;16.10;62.90
36280;DHT22;22317;47.936;12.742;2022-09-09T11:49:42;16.20;61.30
36280;DHT22;22317;47.936;12.742;2022-09-09T11:52:35;15.60;60.70
36280;DHT22;22317;47.936;12.742;2022-09-09T11:55:10;16.10;60.90
36280;DHT22;22317;47.936;12.742;2022-09-09T11:57:39;16.10;60.60
36280;DHT22;22317;47.936;12.742;2022-09-09T12:00:05;16.10;60.60
36280;DHT22;22317;47.936;12.742;2022-09-09T12:02:48;16.00;60.40
36280;DHT22;22317;47.936;12.742;2022-09-09T12:05:15;16.00;60.40
36280;DHT22;22317;47.936;12.742;2022-09-09T12:07:52;15.90;60.40
36280;DHT22;22317;47.936;12.742;2022-09-09T12:10:30;15.90;60.30
36280;DHT22;22317;47.936;12.742;2022-09-09T12:18:32;15.80;59.90
36280;DHT22;22317;47.936;12.742;2022-09-09T12:24:02;15.70;59.50
36280;DHT22;22317;47.936;12.742;2022-09-09T12:32:11;15.60;59.90
36280;DHT22;22317;47.936;12.742;2022-09-09T12:34:52;15.60;59.90
36280;DHT22;22317;47.936;12.742;2022-09-09T12:40:01;15.70;60.00
36280;DHT22;22317;47.936;12.742;2022-09-09T12:42:28;15.70;60.00
36280;DHT22;22317;47.936;12.742;2022-09-09T12:45:03;15.70;59.40
36280;DHT22;22317;47.936;12.742;2022-09-09T12:50:03;15.80;60.10
36280;DHT22;22317;47.936;12.742;2022-09-09T12:52:32;15.90;60.20
36280;DHT22;22317;47.936;12.742;2022-09-09T12:55:00;15.90;60.70
36280;DHT22;22317;47.936;12.742;2022-09-09T12:57:35;16.00;60.10
36280;DHT22;22317;47.936;12.742;2022-09-09T13:00:16;16.00;60.10
36280;DHT22;22317;47.936;12.742;2022-09-09T13:02:47;16.10;59.90
36280;DHT22;22317;47.936;12.742;2022-09-09T13:05:19;16.10;59.70
36280;DHT22;22317;47.936;12.742;2022-09-09T13:07:45;16.20;59.40
36280;DHT22;22317;47.936;12.742;2022-09-09T13:10:14;16.10;58.60
36280;DHT22;22317;47.936;12.742;2022-09-09T13:12:40;16.10;59.10
36280;DHT22;22317;47.936;12.742;2022-09-09T13:15:24;16.10;59.00
36280;DHT22;22317;47.936;12.742;2022-09-09T13:17:58;16.10;58.50
36280;DHT22;22317;47.936;12.742;2022-09-09T13:20:26;16.10;59.00
36280;DHT22;22317;47.936;12.742;2022-09-09T13:22:54;16.10;59.10
36280;DHT22;22317;47.936;12.742;2022-09-09T13:25:24;16.10;59.20
36280;DHT22;22317;47.936;12.742;2022-09-09T13:28:01;16.10;59.20
36280;DHT22;22317;47.936;12.742;2022-09-09T13:33:20;16.10;59.00
36280;DHT22;22317;47.936;12.742;2022-09-09T13:38:17;16.10;58.80
36280;DHT22;22317;47.936;12.742;2022-09-09T13:40:57;16.20;58.30
36280;DHT22;22317;47.936;12.742;2022-09-09T13:43:27;16.20;58.80
36280;DHT22;22317;47.936;12.742;2022-09-09T13:45:55;16.10;58.60
36280;DHT22;22317;47.936;12.742;2022-09-09T13:48:22;16.10;59.30
36280;DHT22;22317;47.936;12.742;2022-09-09T13:51:00;16.10;58.20
36280;DHT22;22317;47.936;12.742;2022-09-09T13:53:26;16.10;58.50
36280;DHT22;22317;47.936;12.742;2022-09-09T13:55:53;16.10;58.60
36280;DHT22;22317;47.936;12.742;2022-09-09T13:58:19;16.10;58.70
36280;DHT22;22317;47.936;12.742;2022-09-09T14:00:45;16.20;58.40
36280;DHT22;22317;47.936;12.742;2022-09-09T14:03:12;16.20;58.90
36280;DHT22;22317;47.936;12.742;2022-09-09T14:05:38;16.30;59.60
36280;DHT22;22317;47.936;12.742;2022-09-09T14:08:06;16.40;58.90
36280;DHT22;22317;47.936;12.742;2022-09-09T14:10:32;16.60;58.50
36280;DHT22;22317;47.936;12.742;2022-09-09T14:13:01;16.70;58.90
36280;DHT22;22317;47.936;12.742;2022-09-09T14:15:27;16.70;58.50
36280;DHT22;22317;47.936;12.742;2022-09-09T14:17:52;16.80;58.20
36280;DHT22;22317;47.936;12.742;2022-09-09T14:20:18;16.80;58.00
36280;DHT22;22317;47.936;12.742;2022-09-09T14:22:44;16.90;58.10
36280;DHT22;22317;47.936;12.742;2022-09-09T14:25:10;17.00;58.00
36280;DHT22;22317;47.936;12.742;2022-09-09T14:27:39;17.00;57.90
36280;DHT22;22317;47.936;12.742;2022-09-09T14:30:05;17.20;57.30
36280;DHT22;22317;47.936;12.742;2022-09-09T14:32:32;17.40;58.00
36280;DHT22;22317;47.936;12.742;2022-09-09T14:34:58;17.60;57.60
36280;DHT22;22317;47.936;12.742;2022-09-09T14:37:24;14.80;55.70
36280;DHT22;22317;47.936;12.742;2022-09-09T14:39:50;17.90;56.90
36280;DHT22;22317;47.936;12.742;2022-09-09T14:42:16;18.20;57.30
36280;DHT22;22317;47.936;12.742;2022-09-09T14:44:42;18.60;56.30
36280;DHT22;22317;47.936;12.742;2022-09-09T14:47:08;19.40;57.60
36280;DHT22;22317;47.936;12.742;2022-09-09T14:49:35;20.50;56.70
36280;DHT22;22317;47.936;12.742;2022-09-09T14:52:01;21.30;53.90
36280;DHT22;22317;47.936;12.742;2022-09-09T14:56:54;23.70;56.80
36280;DHT22;22317;47.936;12.742;2022-09-09T14:59:19;24.80;55.80
36280;DHT22;22317;47.936;12.742;2022-09-09T15:01:45;24.80;53.40
36280;DHT22;22317;47.936;12.742;2022-09-09T15:04:12;24.50;52.00
36280;DHT22;22317;47.936;12.742;2022-09-09T15:06:40;24.20;51.50
36280;DHT22;22317;47.936;12.742;2022-09-09T15:09:08;23.80;51.90
36280;DHT22;22317;47.936;12.742;2022-09-09T15:11:36;23.40;51.60
36280;DHT22;22317;47.936;12.742;2022-09-09T15:14:07;22.90;52.10
36280;DHT22;22317;47.936;12.742;2022-09-09T15:16:33;22.70;51.80
36280;DHT22;22317;47.936;12.742;2022-09-09T15:19:00;22.20;51.90
36280;DHT22;22317;47.936;12.742;2022-09-09T15:21:29;22.00;52.50
36280;DHT22;22317;47.936;12.742;2022-09-09T15:23:56;21.80;52.00
36280;DHT22;22317;47.936;12.742;2022-09-09T15:26:22;21.90;52.70
36280;DHT22;22317;47.936;12.742;2022-09-09T15:28:49;21.40;53.10
36280;DHT22;22317;47.936;12.742;2022-09-09T15:31:26;21.10;52.90
36280;DHT22;22317;47.936;12.742;2022-09-09T15:33:56;21.00;53.60
36280;DHT22;22317;47.936;12.742;2022-09-09T15:38:54;20.10;53.30
36280;DHT22;22317;47.936;12.742;2022-09-09T15:41:22;20.20;53.80
36280;DHT22;22317;47.936;12.742;2022-09-09T15:43:49;20.10;53.90
36280;DHT22;22317;47.936;12.742;2022-09-09T15:46:32;19.90;54.20
36280;DHT22;22317;47.936;12.742;2022-09-09T15:49:04;19.20;63.00
36280;DHT22;22317;47.936;12.742;2022-09-09T15:51:30;19.50;55.20
36280;DHT22;22317;47.936;12.742;2022-09-09T15:53:57;19.40;55.30
36280;DHT22;22317;47.936;12.742;2022-09-09T15:56:24;19.20;55.60
36280;DHT22;22317;47.936;12.742;2022-09-09T15:58:50;18.90;55.90
36280;DHT22;22317;47.936;12.742;2022-09-09T16:01:18;18.80;56.20
36280;DHT22;22317;47.936;12.742;2022-09-09T16:03:45;18.60;56.70
36280;DHT22;22317;47.936;12.742;2022-09-09T16:06:18;18.50;57.20
36280;DHT22;22317;47.936;12.742;2022-09-09T16:08:46;18.30;58.30
36280;DHT22;22317;47.936;12.742;2022-09-09T16:11:20;18.30;58.80
36280;DHT22;22317;47.936;12.742;2022-09-09T16:13:48;17.90;56.70
36280;DHT22;22317;47.936;12.742;2022-09-09T16:16:15;17.70;48.30
36280;DHT22;22317;47.936;12.742;2022-09-09T16:18:43;17.60;49.00
36280;DHT22;22317;47.936;12.742;2022-09-09T16:21:16;17.70;52.80
36280;DHT22;22317;47.936;12.742;2022-09-09T16:23:42;17.60;57.10
36280;DHT22;22317;47.936;12.742;2022-09-09T16:26:13;17.80;60.00
36280;DHT22;22317;47.936;12.742;2022-09-09T16:28:40;17.40;57.90
36280;DHT22;22317;47.936;12.742;2022-09-09T16:31:08;17.60;61.50
36280;DHT22;22317;47.936;12.742;2022-09-09T16:33:36;17.10;51.50
36280;DHT22;22317;47.936;12.742;2022-09-09T16:36:13;17.10;49.90
36280;DHT22;22317;47.936;12.742;2022-09-09T16:38:40;17.00;50.20
36280;DHT22;22317;47.936;12.742;2022-09-09T16:41:06;16.80;50.20
36280;DHT22;22317;47.936;12.742;2022-09-09T16:43:34;16.80;51.10
36280;DHT22;22317;47.936;12.742;2022-09-09T16:46:14;16.70;50.80
36280;DHT22;22317;47.936;12.742;2022-09-09T16:48:43;16.50;54.80
36280;DHT22;22317;47.936;12.742;2022-09-09T16:51:18;16.40;50.50
36280;DHT22;22317;47.936;12.742;2022-09-09T16:53:44;16.40;51.30
36280;DHT22;22317;47.936;12.742;2022-09-09T16:56:13;16.30;51.00
36280;DHT22;22317;47.936;12.742;2022-09-09T16:58:40;16.30;51.90
36280;DHT22;22317;47.936;12.742;2022-09-09T17:01:08;16.20;51.50
36280;DHT22;22317;47.936;12.742;2022-09-09T17:03:35;16.20;52.20
36280;DHT22;22317;47.936;12.742;2022-09-09T17:06:03;16.10;52.40
36280;DHT22;22317;47.936;12.742;2022-09-09T17:08:33;16.00;52.50
36280;DHT22;22317;47.936;12.742;2022-09-09T17:10:59;15.90;52.70
36280;DHT22;22317;47.936;12.742;2022-09-09T17:13:25;15.90;52.90
36280;DHT22;22317;47.936;12.742;2022-09-09T17:15:51;15.80;53.20
36280;DHT22;22317;47.936;12.742;2022-09-09T17:18:17;15.70;53.30
36280;DHT22;22317;47.936;12.742;2022-09-09T17:20:43;15.60;53.10
36280;DHT22;22317;47.936;12.742;2022-09-09T17:23:10;15.60;53.90
36280;DHT22;22317;47.936;12.742;2022-09-09T17:25:37;15.50;54.10
36280;DHT22;22317;47.936;12.742;2022-09-09T17:28:04;15.50;54.30
36280;DHT22;22317;47.936;12.742;2022-09-09T17:30:33;15.40;54.50
36280;DHT22;22317;47.936;12.742;2022-09-09T17:33:00;15.30;54.70
36280;DHT22;22317;47.936;12.742;2022-09-09T17:35:26;15.30;54.90
36280;DHT22;22317;47.936;12.742;2022-09-09T17:37:56;15.20;55.00
36280;DHT22;22317;47.936;12.742;2022-09-09T17:40:22;15.20;54.90
36280;DHT22;22317;47.936;12.742;2022-09-09T17:42:48;15.10;55.40
36280;DHT22;22317;47.936;12.742;2022-09-09T17:45:14;15.10;55.50
36280;DHT22;22317;47.936;12.742;2022-09-09T17:47:40;15.00;55.60
36280;DHT22;22317;47.936;12.742;2022-09-09T17:50:09;15.00;55.50
36280;DHT22;22317;47.936;12.742;2022-09-09T17:52:36;15.00;55.90
36280;DHT22;22317;47.936;12.742;2022-09-09T17:55:03;14.90;55.60
36280;DHT22;22317;47.936;12.742;2022-09-09T17:57:29;14.90;56.30
36280;DHT22;22317;47.936;12.742;2022-09-09T17:59:55;14.80;56.10